createdAt,value
2022-09-02T00:01:23.970Z,67.70
2022-09-02T00:03:51.863Z,67.59
2022-09-02T00:06:19.090Z,66.78
2022-09-02T00:08:46.047Z,68.01
2022-09-02T00:11:19.092Z,68.06
2022-09-02T00:13:46.081Z,65.83
2022-09-02T00:16:13.068Z,67.06
2022-09-02T00:18:44.924Z,67.55
2022-09-02T00:21:13.792Z,66.87
2022-09-02T00:23:41.162Z,67.92
2022-09-02T00:26:07.937Z,67.29
2022-09-02T00:28:34.492Z,67.92
2022-09-02T00:31:01.691Z,68.22
2022-09-02T00:33:28.792Z,69.24
2022-09-02T00:35:55.532Z,71.97
2022-09-02T00:38:22.243Z,69.64
2022-09-02T00:40:49.951Z,74.65
2022-09-02T00:43:38.571Z,75.17
2022-09-02T00:46:06.000Z,76.82
2022-09-02T00:48:33.050Z,75.21
2022-09-02T00:50:59.717Z,77.89
2022-09-02T00:53:26.771Z,74.92
2022-09-02T00:55:53.337Z,75.35
2022-09-02T00:58:24.792Z,75.56
2022-09-02T01:00:56.753Z,72.61
2022-09-02T01:03:27.040Z,75.11
2022-09-02T01:05:55.175Z,73.48
2022-09-02T01:08:28.948Z,71.47
2022-09-02T01:10:56.785Z,75.69
2022-09-02T01:13:27.173Z,72.90
2022-09-02T01:16:12.931Z,75.85
2022-09-02T01:18:39.792Z,73.59
2022-09-02T01:21:06.663Z,74.98
2022-09-02T01:23:35.025Z,72.49
2022-09-02T01:26:02.090Z,72.77
2022-09-02T01:28:28.702Z,73.07
2022-09-02T01:30:55.526Z,70.50
2022-09-02T01:33:23.735Z,69.51
2022-09-02T01:35:52.386Z,71.63
2022-09-02T01:38:21.996Z,69.69
2022-09-02T01:40:49.074Z,68.65
2022-09-02T01:43:19.741Z,71.43
2022-09-02T01:45:47.791Z,71.71
2022-09-02T01:48:17.760Z,72.23
2022-09-02T01:50:52.913Z,73.38
2022-09-02T01:53:19.667Z,73.15
2022-09-02T01:55:46.778Z,72.83
2022-09-02T01:58:13.441Z,76.49
2022-09-02T02:00:40.101Z,77.19
2022-09-02T02:03:07.035Z,76.14
2022-09-02T02:05:33.678Z,78.20
2022-09-02T02:08:00.750Z,77.78
2022-09-02T02:10:27.612Z,77.60
2022-09-02T02:12:54.333Z,79.02
2022-09-02T02:15:21.737Z,78.18
2022-09-02T02:17:48.354Z,78.51
2022-09-02T02:20:16.107Z,79.53
2022-09-02T02:22:43.569Z,81.28
2022-09-02T02:25:10.690Z,82.54
2022-09-02T02:27:37.312Z,84.00
2022-09-02T02:30:06.658Z,83.59
2022-09-02T02:32:33.551Z,84.50
2022-09-02T02:35:00.337Z,86.50
2022-09-02T02:37:26.921Z,87.37
2022-09-02T02:39:54.029Z,87.82
2022-09-02T02:42:21.082Z,88.15
2022-09-02T02:44:47.645Z,90.32
2022-09-02T02:47:14.211Z,92.21
2022-09-02T02:49:43.593Z,91.73
2022-09-02T02:52:11.388Z,93.30
2022-09-02T02:54:38.546Z,93.77
2022-09-02T02:57:05.979Z,97.83
2022-09-02T02:59:32.767Z,97.09
2022-09-02T03:01:59.450Z,97.54
2022-09-02T03:04:26.159Z,99.98
2022-09-02T03:06:53.002Z,100.00
2022-09-02T03:09:20.422Z,100.00
2022-09-02T03:11:47.839Z,100.00
2022-09-02T03:14:14.582Z,100.00
2022-09-02T03:16:41.436Z,100.00
2022-09-02T03:19:08.045Z,100.00
2022-09-02T03:21:39.030Z,100.00
2022-09-02T03:24:06.055Z,100.00
2022-09-02T03:26:33.171Z,100.00
2022-09-02T03:28:59.815Z,100.00
2022-09-02T03:31:27.455Z,100.00
2022-09-02T03:33:54.496Z,100.00
2022-09-02T03:36:33.883Z,100.00
2022-09-02T03:39:00.506Z,100.00
2022-09-02T03:41:27.103Z,100.00
2022-09-02T03:43:53.660Z,100.00
2022-09-02T03:46:20.370Z,100.00
2022-09-02T03:48:47.222Z,100.00
2022-09-02T03:51:13.930Z,100.00
2022-09-02T03:53:40.510Z,100.00
2022-09-02T03:56:09.234Z,100.00
2022-09-02T03:58:36.319Z,100.00
2022-09-02T04:01:03.654Z,100.00
2022-09-02T04:03:30.335Z,100.00
2022-09-02T04:05:57.302Z,100.00
2022-09-02T04:08:24.593Z,100.00
2022-09-02T04:10:51.279Z,100.00
2022-09-02T04:13:18.273Z,100.00
2022-09-02T04:15:49.209Z,100.00
2022-09-02T04:18:17.319Z,100.00
2022-09-02T04:20:44.582Z,100.00
2022-09-02T04:23:11.568Z,100.00
2022-09-02T04:25:42.963Z,100.00
2022-09-02T04:28:09.727Z,100.00
2022-09-02T04:30:39.400Z,100.00
2022-09-02T04:33:06.074Z,100.00
2022-09-02T04:35:32.831Z,100.00
2022-09-02T04:37:59.557Z,100.00
2022-09-02T04:40:26.277Z,100.00
2022-09-02T04:42:55.275Z,100.00
2022-09-02T04:45:24.574Z,100.00
2022-09-02T04:47:53.332Z,100.00
2022-09-02T04:50:20.115Z,100.00
2022-09-02T04:52:46.660Z,100.00
2022-09-02T04:55:13.272Z,100.00
2022-09-02T04:57:39.858Z,100.00
2022-09-02T05:00:07.527Z,100.00
2022-09-02T05:02:34.142Z,100.00
2022-09-02T05:05:00.882Z,100.00
2022-09-02T05:07:27.470Z,100.00
2022-09-02T05:09:59.355Z,100.00
2022-09-02T05:12:28.054Z,100.00
2022-09-02T05:14:57.124Z,100.00
2022-09-02T05:17:23.803Z,100.00
2022-09-02T05:19:50.364Z,100.00
2022-09-02T05:22:17.603Z,100.00
2022-09-02T05:24:44.283Z,100.00
2022-09-02T05:27:11.087Z,100.00
2022-09-02T05:29:37.782Z,100.00
2022-09-02T05:32:04.970Z,100.00
2022-09-02T05:34:33.402Z,100.00
2022-09-02T05:37:00.127Z,100.00
2022-09-02T05:39:26.694Z,100.00
2022-09-02T05:41:53.262Z,100.00
2022-09-02T05:44:20.051Z,100.00
2022-09-02T05:46:48.901Z,100.00
2022-09-02T05:49:21.340Z,100.00
2022-09-02T05:51:51.136Z,100.00
2022-09-02T05:54:24.134Z,100.00
2022-09-02T05:56:53.880Z,100.00
2022-09-02T05:59:22.016Z,100.00
2022-09-02T06:01:49.340Z,100.00
2022-09-02T06:04:16.440Z,100.00
2022-09-02T06:06:43.447Z,100.00
2022-09-02T06:09:13.958Z,100.00
2022-09-02T06:11:46.331Z,100.00
2022-09-02T06:14:14.492Z,100.00
2022-09-02T06:16:42.122Z,100.00
2022-09-02T06:19:08.815Z,100.00
2022-09-02T06:21:37.138Z,100.00
2022-09-02T06:24:07.670Z,100.00
2022-09-02T06:26:34.526Z,100.00
2022-09-02T06:29:01.064Z,100.00
2022-09-02T06:31:27.726Z,100.00
2022-09-02T06:34:01.239Z,100.00
2022-09-02T06:36:31.347Z,100.00
2022-09-02T06:38:59.226Z,100.00
2022-09-02T06:41:29.037Z,95.04
2022-09-02T06:43:57.655Z,96.55
2022-09-02T06:46:46.496Z,96.70
2022-09-02T06:49:13.603Z,100.00
2022-09-02T06:51:42.303Z,95.76
2022-09-02T06:54:11.004Z,89.06
2022-09-02T06:56:43.828Z,85.03
2022-09-02T06:59:12.586Z,76.64
2022-09-02T07:01:39.314Z,75.30
2022-09-02T07:04:24.586Z,75.19
2022-09-02T07:06:53.599Z,82.73
2022-09-02T07:09:31.099Z,72.84
2022-09-02T07:12:03.594Z,80.30
2022-09-02T07:14:31.918Z,81.92
2022-09-02T07:17:00.105Z,85.18
2022-09-02T07:19:26.986Z,72.42
2022-09-02T07:21:53.718Z,71.10
2022-09-02T07:24:20.680Z,73.58
2022-09-02T07:26:47.659Z,70.58
2022-09-02T07:29:14.711Z,73.26
2022-09-02T07:31:44.332Z,66.61
2022-09-02T07:34:11.856Z,64.39
2022-09-02T07:36:38.555Z,64.63
2022-09-02T07:39:07.420Z,64.61
2022-09-02T07:41:34.916Z,61.70
2022-09-02T07:44:02.300Z,60.25
2022-09-02T07:46:32.293Z,60.32
2022-09-02T07:49:00.367Z,59.04
2022-09-02T07:51:30.862Z,58.82
2022-09-02T07:53:58.119Z,57.75
2022-09-02T07:56:24.775Z,57.16
2022-09-02T07:58:51.439Z,57.97
2022-09-02T08:01:22.730Z,56.11
2022-09-02T08:03:50.412Z,55.90
2022-09-02T08:06:17.162Z,55.88
2022-09-02T08:08:48.619Z,55.67
2022-09-02T08:11:15.386Z,54.70
2022-09-02T08:13:42.064Z,55.08
2022-09-02T08:16:08.816Z,54.17
2022-09-02T08:18:36.172Z,54.90
2022-09-02T08:21:02.819Z,55.01
2022-09-02T08:23:37.704Z,54.26
2022-09-02T08:26:05.683Z,53.42
2022-09-02T08:28:32.846Z,54.01
2022-09-02T08:30:59.674Z,54.08
2022-09-02T08:33:26.375Z,53.48
2022-09-02T08:35:52.952Z,53.61
2022-09-02T08:38:19.572Z,54.30
2022-09-02T08:40:46.325Z,53.78
2022-09-02T08:43:29.203Z,54.18
2022-09-02T08:45:58.839Z,53.28
2022-09-02T08:48:33.862Z,52.21
2022-09-02T08:51:08.731Z,51.73
2022-09-02T08:54:03.262Z,50.66
2022-09-02T08:56:31.428Z,50.38
2022-09-02T08:58:59.104Z,50.32
2022-09-02T09:01:44.391Z,49.21
2022-09-02T09:04:20.126Z,48.35
2022-09-02T09:06:58.912Z,47.74
2022-09-02T09:09:52.787Z,46.82
2022-09-02T09:12:28.398Z,45.53
2022-09-02T09:15:01.253Z,45.00
2022-09-02T09:17:59.498Z,45.17
2022-09-02T09:20:28.756Z,45.52
2022-09-02T09:22:56.867Z,44.66
2022-09-02T09:25:30.248Z,45.12
2022-09-02T09:28:00.689Z,43.64
2022-09-02T09:30:28.166Z,43.60
2022-09-02T09:33:02.789Z,44.12
2022-09-02T09:35:50.780Z,44.01
2022-09-02T09:38:30.091Z,43.17
2022-09-02T09:41:21.692Z,41.98
2022-09-02T09:43:48.591Z,41.62
2022-09-02T09:46:22.220Z,40.45
2022-09-02T09:48:49.907Z,38.52
2022-09-02T09:51:16.518Z,39.18
2022-09-02T09:53:43.838Z,37.94
2022-09-02T09:56:16.344Z,35.76
2022-09-02T09:58:46.233Z,35.41
2022-09-02T10:01:23.475Z,35.02
2022-09-02T10:03:56.423Z,33.87
2022-09-02T10:06:25.923Z,34.32
2022-09-02T10:08:55.692Z,34.65
2022-09-02T10:11:33.420Z,36.16
2022-09-02T10:14:07.314Z,34.89
2022-09-02T10:16:42.587Z,34.04
2022-09-02T10:19:39.835Z,37.34
2022-09-02T10:22:58.748Z,36.31
2022-09-02T10:25:28.671Z,33.23
2022-09-02T10:28:33.616Z,29.93
2022-09-02T10:31:26.468Z,31.71
2022-09-02T10:34:07.982Z,29.50
2022-09-02T10:36:41.594Z,28.72
2022-09-02T10:39:29.918Z,29.34
2022-09-02T10:42:08.739Z,30.09
2022-09-02T10:44:49.630Z,31.15
2022-09-02T10:47:31.775Z,31.03
2022-09-02T10:50:04.558Z,31.07
2022-09-02T10:52:50.666Z,30.68
2022-09-02T10:55:41.761Z,27.76
2022-09-02T10:58:34.538Z,26.51
2022-09-02T11:01:01.960Z,24.13
2022-09-02T11:03:46.617Z,23.75
2022-09-02T11:06:26.191Z,24.08
2022-09-02T11:09:01.864Z,26.95
2022-09-02T11:11:52.839Z,27.73
2022-09-02T11:14:26.881Z,28.71
2022-09-02T11:17:32.872Z,29.94
2022-09-02T11:20:04.153Z,31.09
2022-09-02T11:22:54.454Z,32.95
2022-09-02T11:25:38.815Z,32.81
2022-09-02T11:28:49.325Z,32.27
2022-09-02T11:31:22.863Z,32.31
2022-09-02T11:33:59.012Z,31.25
2022-09-02T11:36:26.371Z,32.40
2022-09-02T11:39:08.415Z,32.88
2022-09-02T11:41:59.387Z,32.99
2022-09-02T11:44:41.647Z,33.98
2022-09-02T11:47:56.237Z,35.07
2022-09-02T11:50:41.191Z,34.95
2022-09-02T11:53:10.735Z,35.37
2022-09-02T11:55:40.598Z,34.05
2022-09-02T11:58:07.264Z,33.00
2022-09-02T12:00:55.628Z,31.88
2022-09-02T12:03:58.716Z,30.91
2022-09-02T12:06:17.319Z,30.47
2022-09-02T12:08:44.499Z,30.91
2022-09-02T12:11:45.401Z,31.74
2022-09-02T12:14:21.073Z,28.75
2022-09-02T12:17:04.799Z,28.09
2022-09-02T12:19:45.525Z,29.76
2022-09-02T12:22:15.166Z,31.89
2022-09-02T12:24:51.835Z,32.31
2022-09-02T12:27:25.500Z,33.51
2022-09-02T12:29:52.716Z,33.40
2022-09-02T12:32:51.236Z,33.15
2022-09-02T12:35:35.231Z,32.86
2022-09-02T12:38:09.926Z,33.22
2022-09-02T12:40:42.127Z,32.66
2022-09-02T12:43:27.909Z,32.19
2022-09-02T12:46:05.614Z,33.06
2022-09-02T12:48:40.654Z,34.14
2022-09-02T12:51:08.800Z,34.21
2022-09-02T12:53:38.390Z,33.86
2022-09-02T12:56:26.962Z,29.84
2022-09-02T12:59:02.334Z,26.92
2022-09-02T13:01:46.889Z,28.82
2022-09-02T13:04:34.748Z,26.67
2022-09-02T13:07:38.843Z,23.67
2022-09-02T13:10:37.528Z,24.89
2022-09-02T13:13:49.305Z,26.25
2022-09-02T13:16:45.275Z,25.97
2022-09-02T13:19:27.981Z,24.49
2022-09-02T13:22:19.427Z,22.28
2022-09-02T13:24:52.458Z,21.35
2022-09-02T13:27:45.341Z,20.87
2022-09-02T13:30:26.275Z,26.59
2022-09-02T13:32:59.698Z,28.23
2022-09-02T13:35:27.742Z,28.75
2022-09-02T13:37:59.726Z,29.32
2022-09-02T13:40:35.191Z,29.54
2022-09-02T13:43:15.625Z,29.73
2022-09-02T13:45:42.904Z,30.61
2022-09-02T13:48:15.136Z,30.86
2022-09-02T13:50:47.116Z,30.78
2022-09-02T13:56:10.128Z,32.18
2022-09-02T13:58:46.362Z,32.25
2022-09-02T14:01:35.054Z,31.25
2022-09-02T14:04:07.403Z,32.12
2022-09-02T14:06:38.878Z,32.83
2022-09-02T14:09:09.110Z,33.27
2022-09-02T14:11:41.931Z,34.08
2022-09-02T14:14:09.369Z,34.91
2022-09-02T14:16:37.132Z,34.35
2022-09-02T14:19:05.588Z,34.74
2022-09-02T14:21:32.763Z,34.92
2022-09-02T14:23:59.472Z,34.84
2022-09-02T14:26:42.469Z,35.64
2022-09-02T14:29:12.899Z,36.00
2022-09-02T14:31:39.571Z,35.69
2022-09-02T14:34:33.437Z,34.93
2022-09-02T14:37:00.543Z,34.77
2022-09-02T14:39:27.496Z,34.60
2022-09-02T14:41:55.679Z,34.38
2022-09-02T14:44:26.934Z,34.76
2022-09-02T14:46:54.274Z,34.35
2022-09-02T14:49:24.073Z,33.93
2022-09-02T14:51:52.808Z,34.39
2022-09-02T14:54:37.623Z,34.41
2022-09-02T14:57:04.814Z,34.22
2022-09-02T14:59:31.531Z,33.74
2022-09-02T15:01:59.076Z,34.00
2022-09-02T15:04:25.658Z,34.50
2022-09-02T15:06:52.433Z,34.42
2022-09-02T15:09:19.680Z,34.41
2022-09-02T15:11:50.276Z,34.26
2022-09-02T15:14:17.144Z,34.28
2022-09-02T15:16:43.658Z,33.79
2022-09-02T15:19:10.206Z,33.94
2022-09-02T15:21:36.799Z,33.44
2022-09-02T15:24:04.006Z,32.27
2022-09-02T15:26:30.612Z,32.85
2022-09-02T15:28:57.309Z,32.98
2022-09-02T15:31:23.994Z,31.73
2022-09-02T15:33:51.799Z,31.60
2022-09-02T15:36:19.179Z,33.05
2022-09-02T15:38:45.759Z,33.05
2022-09-02T15:41:24.053Z,33.66
2022-09-02T15:43:54.047Z,33.33
2022-09-02T15:46:29.834Z,32.57
2022-09-02T15:49:02.662Z,33.80
2022-09-02T15:51:29.815Z,33.43
2022-09-02T15:54:09.580Z,33.75
2022-09-02T15:56:39.227Z,34.26
2022-09-02T15:59:09.506Z,34.38
2022-09-02T16:01:38.653Z,32.70
2022-09-02T16:04:06.124Z,31.84
2022-09-02T16:06:36.040Z,31.93
2022-09-02T16:09:03.659Z,32.60
2022-09-02T16:11:30.235Z,33.07
2022-09-02T16:13:57.042Z,33.00
2022-09-02T16:16:23.721Z,33.86
2022-09-02T16:18:53.767Z,33.69
2022-09-02T16:21:21.689Z,34.22
2022-09-02T16:23:50.131Z,34.29
2022-09-02T16:26:24.309Z,34.69
2022-09-02T16:28:52.944Z,34.14
2022-09-02T16:31:20.791Z,34.45
2022-09-02T16:34:03.790Z,34.85
2022-09-02T16:36:33.182Z,34.03
2022-09-02T16:39:01.159Z,34.12
2022-09-02T16:41:28.866Z,33.96
2022-09-02T16:43:57.372Z,34.21
2022-09-02T16:46:25.629Z,34.33
2022-09-02T16:48:52.980Z,34.68
2022-09-02T16:51:19.510Z,34.59
2022-09-02T16:53:46.492Z,35.02
2022-09-02T16:56:17.153Z,34.99
2022-09-02T16:58:43.786Z,35.35
2022-09-02T17:01:14.161Z,35.33
2022-09-02T17:03:41.518Z,35.15
2022-09-02T17:06:09.144Z,35.20
2022-09-02T17:08:35.753Z,35.46
2022-09-02T17:11:21.108Z,35.71
2022-09-02T17:13:53.913Z,35.66
2022-09-02T17:16:22.761Z,36.31
2022-09-02T17:18:49.822Z,36.06
2022-09-02T17:21:59.139Z,36.36
2022-09-02T17:24:27.858Z,36.81
2022-09-02T17:26:56.001Z,36.71
2022-09-02T17:32:10.952Z,37.01
2022-09-02T17:34:37.646Z,38.28
2022-09-02T17:37:05.318Z,38.31
2022-09-02T17:39:33.902Z,38.25
2022-09-02T17:42:00.791Z,38.26
2022-09-02T17:44:28.119Z,37.35
2022-09-02T17:46:56.245Z,38.61
2022-09-02T17:49:23.060Z,38.42
2022-09-02T17:51:50.099Z,39.49
2022-09-02T17:54:17.084Z,40.02
2022-09-02T17:57:21.800Z,40.01
2022-09-02T18:00:11.145Z,40.30
2022-09-02T18:03:13.094Z,40.14
2022-09-02T18:06:03.647Z,40.13
2022-09-02T18:08:43.937Z,40.73
2022-09-02T18:11:12.220Z,41.66
2022-09-02T18:13:54.684Z,39.71
2022-09-02T18:16:41.593Z,41.24
2022-09-02T18:19:36.158Z,41.55
2022-09-02T18:22:21.496Z,41.59
2022-09-02T18:24:57.343Z,41.89
2022-09-02T18:27:23.959Z,42.68
2022-09-02T18:29:53.627Z,43.10
2022-09-02T18:32:32.278Z,43.49
2022-09-02T18:35:04.893Z,43.19
2022-09-02T18:37:44.620Z,44.19
2022-09-02T18:40:20.355Z,44.44
2022-09-02T18:43:24.371Z,44.28
2022-09-02T18:45:54.637Z,44.82
2022-09-02T18:48:25.537Z,45.07
2022-09-02T18:51:16.647Z,45.49
2022-09-02T18:53:47.307Z,46.03
2022-09-02T18:56:14.284Z,46.45
2022-09-02T18:58:57.725Z,46.91
2022-09-02T19:01:27.346Z,47.47
2022-09-02T19:03:53.999Z,47.42
2022-09-02T19:06:28.852Z,48.71
2022-09-02T19:08:59.510Z,48.99
2022-09-02T19:11:27.299Z,49.65
2022-09-02T19:13:56.115Z,50.00
2022-09-02T19:16:32.077Z,50.49
2022-09-02T19:18:58.887Z,51.02
2022-09-02T19:21:35.754Z,51.20
2022-09-02T19:24:04.571Z,52.19
2022-09-02T19:26:31.495Z,52.17
2022-09-02T19:28:58.224Z,52.57
2022-09-02T19:31:28.336Z,52.78
2022-09-02T19:33:56.577Z,54.03
2022-09-02T19:36:26.387Z,54.60
2022-09-02T19:38:57.874Z,54.73
2022-09-02T19:41:28.103Z,54.70
2022-09-02T19:43:55.106Z,55.31
2022-09-02T19:46:57.868Z,55.32
2022-09-02T19:49:08.962Z,55.61
2022-09-02T19:51:35.519Z,55.72
2022-09-02T19:54:03.341Z,56.09
2022-09-02T19:56:29.975Z,56.30
2022-09-02T19:58:56.888Z,56.76
2022-09-02T20:01:23.537Z,57.27
2022-09-02T20:03:50.099Z,57.56
2022-09-02T20:06:16.672Z,57.85
2022-09-02T20:08:43.212Z,58.17
2022-09-02T20:11:09.792Z,58.52
2022-09-02T20:13:41.035Z,59.01
2022-09-02T20:16:16.652Z,59.54
2022-09-02T20:18:46.731Z,58.98
2022-09-02T20:21:32.384Z,60.05
2022-09-02T20:24:03.840Z,60.27
2022-09-02T20:26:53.730Z,60.88
2022-09-02T20:29:29.647Z,61.39
2022-09-02T20:32:19.250Z,61.81
2022-09-02T20:34:45.727Z,62.44
2022-09-02T20:37:29.695Z,62.75
2022-09-02T20:40:20.010Z,62.99
2022-09-02T20:42:57.404Z,63.77
2022-09-02T20:45:23.875Z,63.93
2022-09-02T20:48:29.266Z,64.96
2022-09-02T20:51:05.676Z,65.45
2022-09-02T20:54:01.648Z,66.36
2022-09-02T20:56:55.368Z,66.89
2022-09-02T20:59:43.993Z,68.62
2022-09-02T21:02:15.311Z,68.25
2022-09-02T21:04:43.105Z,68.69
2022-09-02T21:07:29.109Z,70.30
2022-09-02T21:10:20.191Z,71.28
2022-09-02T21:12:56.585Z,71.62
2022-09-02T21:15:42.979Z,72.46
2022-09-02T21:18:18.390Z,73.62
2022-09-02T21:21:03.826Z,75.20
2022-09-02T21:23:33.492Z,76.43
2022-09-02T21:26:30.564Z,76.02
2022-09-02T21:29:05.085Z,76.50
2022-09-02T21:31:35.831Z,76.98
2022-09-02T21:34:07.862Z,78.22
2022-09-02T21:36:36.090Z,78.88
2022-09-02T21:39:07.295Z,80.02
2022-09-02T21:41:44.612Z,80.77
2022-09-02T21:44:19.897Z,84.43
2022-09-02T21:47:04.165Z,83.12
2022-09-02T21:49:36.881Z,85.09
2022-09-02T21:52:06.610Z,83.14
2022-09-02T21:54:48.487Z,83.25
2022-09-02T21:57:21.004Z,84.23
2022-09-02T22:00:10.425Z,83.50
2022-09-02T22:02:47.193Z,79.46
2022-09-02T22:05:52.626Z,77.41
2022-09-02T22:08:34.573Z,75.30
2022-09-02T22:11:26.591Z,71.70
2022-09-02T22:13:56.703Z,69.23
2022-09-02T22:16:53.687Z,67.60
2022-09-02T22:19:20.608Z,65.78
2022-09-02T22:21:49.731Z,65.60
2022-09-02T22:24:18.820Z,63.96
2022-09-02T22:26:53.381Z,63.66
2022-09-02T22:29:29.068Z,63.65
2022-09-02T22:31:58.970Z,63.75
2022-09-02T22:34:28.333Z,62.63
2022-09-02T22:36:56.913Z,62.79
2022-09-02T22:39:33.861Z,62.98
2022-09-02T22:42:09.570Z,62.12
2022-09-02T22:45:02.363Z,62.66
2022-09-02T22:48:05.751Z,62.49
2022-09-02T22:50:57.953Z,62.55
2022-09-02T22:53:24.500Z,61.66
2022-09-02T22:56:09.769Z,61.62
2022-09-02T22:59:03.168Z,62.16
2022-09-02T23:01:40.861Z,62.65
2022-09-02T23:04:13.471Z,63.17
2022-09-02T23:06:40.031Z,62.48
2022-09-02T23:09:11.420Z,62.92
2022-09-02T23:11:40.973Z,62.17
2022-09-02T23:14:39.868Z,62.50
2022-09-02T23:17:15.574Z,62.12
2022-09-02T23:20:00.002Z,61.98
2022-09-02T23:22:35.486Z,62.16
2022-09-02T23:25:13.512Z,62.69
2022-09-02T23:27:55.648Z,62.54
2022-09-02T23:30:22.216Z,63.26
2022-09-02T23:33:04.727Z,63.49
2022-09-02T23:35:43.590Z,63.95
2022-09-02T23:38:16.194Z,64.09
2022-09-02T23:40:43.583Z,64.66
2022-09-02T23:43:15.492Z,64.40
2022-09-02T23:45:42.113Z,64.20
2022-09-02T23:48:39.532Z,65.28
2022-09-02T23:51:25.008Z,65.36
2022-09-02T23:54:13.291Z,65.38
2022-09-02T23:56:42.903Z,65.47
2022-09-02T23:59:15.283Z,66.14
